Terminal Aerodrome Forecast
Issued by NWS

Home | Current Version | Previous Version | Text Only | Print | Product List | Glossary On
Versions: 1 2 3 4 5 6 7 8 9 10 11 12 13 14 15 16 17 18 19 20 21
000
FTUS41 KCAR 252337
TAFBHB
TAF
KBHB 252337Z 2600/2624 10008KT P6SM -RA SCT025 OVC035
      TEMPO 2600/2601 6SM -RA OVC025
     FM260100 10008KT 6SM -RA BR OVC025
     FM260300 10010KT 3SM -RA BR OVC008
     FM260500 10012KT 2SM -RA BR OVC004
     FM261800 12012KT 4SM -RA BR OVC005=

USA.gov is the U.S. government's official web portal to all federal, state and local government web resources and services.